マヌエル・クレセンシオ・レホン国際空港の過去48時間の天気

マヌエル・クレセンシオ・レホン国際空港 (Merida / lic Manuel Crecencio)

現在時刻: 9/25 14:53 CDT (9/25 19:53 UTC) 以下の時間は現地時間です。

過去48時間のMETAR気象情報
時間 風向 風速(m/s) 視程 気温(℃) 湿度(%) 気圧(hPa) 天気現象
25 13:44 静穏 0 10km以上 32 59 1011
25 12:44 静穏 0 10km以上 32 56 1012.5
25 11:42 静穏 0 10km以上 32 63 1013
25 10:49 静穏 0 10km以上 30 70 1013
25 09:44 静穏 0 10km以上 28 79 1012.2
25 08:44 東北東 3 10km以上 27 84 1013
25 07:43 静穏 0 10km以上 27 89 1013
25 06:47 静穏 0 10km以上 24 100 1012
25 05:48 2 10km以上 25 94 1012
25 04:40 静穏 0 10km以上 25 94 1012
25 03:47 2 10km以上 26 94 1012.6
25 02:41 静穏 0 10km以上 26 94 1012
25 01:41 静穏 0 10km以上 26 89 1013
25 00:44 静穏 0 10km以上 26 89 1013.6
24 23:43 東北東 2 10km以上 27 84 1014
24 22:41 静穏 0 10km以上 27 84 1014
24 21:46 東北東 5 10km以上 27 84 1012.2
24 20:42 北北東 3 10km以上 27 79 1013
24 19:47 北東 2 10km以上 28 79 1013
24 18:47 北東 2 10km以上 29 70 1012
24 17:45 北北東 5 10km以上 30 70 1012
24 16:47 東北東 5 10km以上 31 59 1012
24 15:49 4 10km以上 32 59 1012.6
24 14:49 北東 4 10km以上 32 63 1012
24 13:43 静穏 0 10km以上 31 66 1014
24 12:48 東南東 2 10km以上 32 59 1014.8
24 11:42 静穏 0 10km以上 31 66 1015
24 10:45 東南東 4 10km以上 30 70 1016
24 09:45 東南東 2 10km以上 28 84 1014.6
24 08:47 2 10km以上 28 84 1015
24 07:45 静穏 0 10km以上 26 89 1014
24 06:43 静穏 0 10km以上 25 94 1013.8
24 05:43 静穏 0 10km以上 24 94 1013
24 04:40 2 10km以上 24 94 1013
24 03:41 静穏 0 10km以上 24 94 1013.9
24 02:40 静穏 0 10km以上 24 94 1014
24 01:40 静穏 0 10km以上 24 94 1015
24 00:43 静穏 0 10km以上 25 94 1015.2
23 23:40 2 10km以上 25 94 1016
23 22:41 3 10km以上 26 94 1016
23 21:40 東北東 2 10km以上 27 84 1016.6
23 20:40 北東 3 10km以上 27 84 1014
23 19:40 東北東 4 10km以上 27 84 1013
23 18:42 北北東 3 10km以上 27 84 1012.5
23 17:45 南南東 2 6450m 25 94 1013 弱い雨
23 17:29 南南東 9 3200m 24 94 1012
23 17:23 南東 10 4850m 26 84 1012
23 16:42 4 10km以上 31 70 1012
23 15:40 4 10km以上 32 67 1012.5
MMMD 251844Z 00000KT 7SM BKN020TCU 32/23 A2984 RMK 8/200
MMMD 251744Z 00000KT 7SM BKN020 32/22 A2987 RMK SLP125 52003 973 8/100 MDT CU
MMMD 251642Z 00000KT 7SM BKN018 32/24 A2990 RMK 8/100 HZY MDT CU
MMMD 251549Z 00000KT 7SM BKN015 30/24 A2991 RMK 8/100 HZY MDT CU
MMMD 251444Z 00000KT 7SM BKN015 28/24 A2992 RMK SLP122 52002 974 8/100 HZY
MMMD 251344Z 07005KT 7SM FEW008 BKN300 27/24 A2991 RMK 8/108 HZY
MMMD 251243Z 00000KT 6SM BKN300 27/25 A2990 RMK 8/008 HZY
MMMD 251147Z 00000KT 6SM BKN300 24/24 A2989 RMK SLP120 57006 968 8/008 HZY DNST CB N
MMMD 251048Z 09003KT 7SM SCT300 25/24 A2987 RMK 8/008
MMMD 250940Z 00000KT 7SM SCT300 25/24 A2987 RMK 8/008
MMMD 250847Z 08004KT 7SM SCT300 26/25 A2987 RMK SLP126 57010 963 8/008
MMMD 250741Z 00000KT 7SM SKC 26/25 A2989
MMMD 250641Z 00000KT 7SM SKC 26/24 A2990 RMK CI
MMMD 250544Z 00000KT 7SM SKC 26/24 A2991 RMK SLP136 52014 965 CI
MMMD 250443Z 06004KT 7SM SCT300 27/24 A2993 RMK 8/008
MMMD 250341Z 00000KT 7SM SCT300 27/24 A2994 RMK 8/008
MMMD 250246Z 06009KT 7SM SCT300 27/24 A2993 RMK SLP122 52002 990 8/008
MMMD 250142Z 03006KT 7SM SCT300 27/23 A2992 RMK 8/008 SC
MMMD 250047Z 04004KT 7SM SCT300 28/24 A2990 RMK 8/008 SC
MMMD 242347Z 04004KT 7SM SCT300 29/23 A2988 RMK SLP120 57006 954 8/008 SC AC
MMMD 242245Z 02010KT 7SM SCT015 SCT300 30/24 A2987 RMK 8/108 VC TCU AC
MMMD 242147Z 07010KT 7SM SCT015TCU SCT300 31/22 A2987 RMK 8/208 CB SE SW
MMMD 242049Z 36007KT 7SM BKN015CB BKN300 32/23 A2987 RMK SLP126 57022 900 8/303 AC
MMMD 241949Z 05007KT 7SM BKN015CB 32/24 A2989 RMK 8/300 CI
MMMD 241843Z 00000KT 7SM BKN020TCU 31/24 A2993 RMK 8/200 OCNL DROPS AC
MMMD 241748Z 12004KT 7SM BKN020TCU 32/23 A2996 RMK SLP148 53002 905 8/200 AC CC
MMMD 241642Z 00000KT 7SM BKN018 31/24 A2998 RMK 8/100 MDT CU AC
MMMD 241545Z 11007KT 7SM SCT015 30/24 A2999 RMK 8/100 AC
MMMD 241445Z 12004KT 7SM FEW010 SCT090 28/25 A2999 RMK SLP146 52008 900 8/580
MMMD 241347Z 09003KT 7SM FEW007 FEW090 28/25 A2997 RMK 8/570
MMMD 241245Z 00000KT 7SM FEW090 26/24 A2995 RMK 8/070 HZY
MMMD 241143Z 00000KT 6SM SKC 25/24 A2993 RMK SLP138 56009 906 HZY AC 2ND QUAD
MMMD 241043Z 00000KT 6SM SKC 24/23 A2992
MMMD 240940Z 36003KT 6SM SCT070 24/23 A2992 RMK 8/030
MMMD 240841Z 00000KT 6SM SCT070 24/23 A2994 RMK SLP139 57013 910 8/030
MMMD 240740Z 00000KT 6SM BKN070 24/23 A2995 RMK 8/030
MMMD 240640Z 00000KT 6SM SCT070 24/23 A2996 RMK 8/030
MMMD 240543Z 00000KT 6SM SKC 25/24 A2998 RMK SLP152 58015 919
MMMD 240440Z 17004KT 6SM SCT015 OVC070 25/24 A2999 RMK 8/53/
MMMD 240341Z 17005KT 6SM FEW015 OVC070 26/25 A2999 RMK 8/53/ BINOVC
MMMD 240240Z 06004KT 6SM SKC 27/24 A2997 RMK SLP166 52041 940 ISOL CI
MMMD 240140Z 05006KT 6SM SCT070 BKN300 27/24 A2994 RMK 8/031
MMMD 240040Z 06008KT 6SM SCT300 27/24 A2992 RMK 8/001 ISOL AC
MMMD 232342Z 02006KT 6SM SCT070 27/24 A2989 RMK SLP125 55009 913 60055 8/060 -RAE37 CBS SE
MMMD 232245Z 16003KT 4SM -RA SCT012CB BKN020 BKN070 25/24 A2990 RMK 60655 8/360 RAE38 -RAB38
MMMD 232229Z 16017KT 2SM RA BKN010CB 24/23 A2989 RMK 8/300 RAB27 TWR VSBY
MMMD 232223Z 13019KT 3SM RA BKN012CB 26/23 A2989 RMK 8/300 TWR VSBY RA SE SW
MMMD 232142Z 36007KT 7SM SCT020CB 31/25 A2987 RMK 8/300 PCPN E
MMMD 232040Z 01008KT 7SM BKN020TCU 32/25 A2987 RMK SLP125 57017 917 8/200 PCPN NE